createdAt,value
2023-07-25T00:01:08.981Z,9.30
2023-07-25T00:03:37.356Z,11.10
2023-07-25T00:06:05.161Z,9.50
2023-07-25T00:08:33.494Z,9.50
2023-07-25T00:11:01.420Z,11.70
2023-07-25T00:13:29.135Z,10.80
2023-07-25T00:15:56.850Z,9.80
2023-07-25T00:18:24.528Z,13.90
2023-07-25T00:20:52.179Z,12.00
2023-07-25T00:23:20.034Z,12.40
2023-07-25T00:25:47.779Z,11.60
2023-07-25T00:28:16.123Z,11.90
2023-07-25T00:30:43.758Z,11.20
2023-07-25T00:33:11.448Z,10.30
2023-07-25T00:35:39.112Z,10.70
2023-07-25T00:38:07.085Z,12.20
2023-07-25T00:40:39.774Z,12.00
2023-07-25T00:43:07.489Z,9.20
2023-07-25T00:45:35.363Z,9.30
2023-07-25T00:48:03.333Z,10.60
2023-07-25T00:50:31.041Z,10.60
2023-07-25T00:52:59.924Z,10.90
2023-07-25T00:55:28.632Z,12.50
2023-07-25T00:57:56.331Z,11.20
2023-07-25T01:00:24.269Z,10.30
2023-07-25T01:02:52.058Z,12.80
2023-07-25T01:05:20.253Z,10.00
2023-07-25T01:07:48.343Z,10.90
2023-07-25T01:10:16.191Z,11.40
2023-07-25T01:12:43.965Z,9.00
2023-07-25T01:15:11.616Z,10.80
2023-07-25T01:17:39.539Z,13.90
2023-07-25T01:20:09.420Z,9.60
2023-07-25T01:22:37.906Z,10.90
2023-07-25T01:25:05.928Z,10.00
2023-07-25T01:27:33.563Z,11.70
2023-07-25T01:30:01.363Z,10.20
2023-07-25T01:32:29.193Z,12.50
2023-07-25T01:34:57.119Z,10.30
2023-07-25T01:37:24.863Z,10.20
2023-07-25T01:39:52.558Z,12.80
2023-07-25T01:42:20.409Z,11.30
2023-07-25T01:44:48.042Z,10.00
2023-07-25T01:47:15.702Z,11.70
2023-07-25T01:49:43.506Z,9.80
2023-07-25T01:52:11.131Z,12.90
2023-07-25T01:54:38.795Z,13.40
2023-07-25T01:57:07.134Z,10.20
2023-07-25T01:59:34.961Z,10.20
2023-07-25T02:02:02.670Z,11.40
2023-07-25T02:04:30.500Z,11.10
2023-07-25T02:06:58.180Z,12.50
2023-07-25T02:09:25.821Z,11.30
2023-07-25T02:11:54.377Z,12.00
2023-07-25T02:14:22.067Z,12.50
2023-07-25T02:16:49.806Z,11.00
2023-07-25T02:19:17.529Z,11.60
2023-07-25T02:21:45.157Z,9.50
2023-07-25T02:24:12.834Z,11.80
2023-07-25T02:26:40.544Z,10.00
2023-07-25T02:29:08.335Z,11.10
2023-07-25T02:31:36.334Z,10.00
2023-07-25T02:34:03.982Z,10.50
2023-07-25T02:36:31.661Z,11.70
2023-07-25T02:38:59.331Z,8.70
2023-07-25T02:41:27.182Z,9.30
2023-07-25T02:43:54.931Z,11.30
2023-07-25T02:46:22.637Z,11.50
2023-07-25T02:48:50.640Z,9.70
2023-07-25T02:51:18.983Z,11.40
2023-07-25T02:53:46.689Z,8.80
2023-07-25T02:56:14.319Z,9.60
2023-07-25T02:58:41.986Z,9.40
2023-07-25T03:01:09.949Z,12.30
2023-07-25T03:03:37.847Z,14.10
2023-07-25T03:06:05.558Z,9.60
2023-07-25T03:08:33.301Z,11.80
2023-07-25T03:11:01.030Z,15.90
2023-07-25T03:13:28.874Z,11.00
2023-07-25T03:15:56.536Z,10.80
2023-07-25T03:18:24.200Z,11.60
2023-07-25T03:20:52.016Z,10.60
2023-07-25T03:23:19.695Z,12.40
2023-07-25T03:25:47.472Z,11.30
2023-07-25T03:28:15.179Z,9.80
2023-07-25T03:30:42.863Z,8.40
2023-07-25T03:33:10.581Z,11.50
2023-07-25T03:35:38.351Z,11.00
2023-07-25T03:38:06.003Z,13.90
2023-07-25T03:40:33.704Z,11.00
2023-07-25T03:43:01.345Z,12.10
2023-07-25T03:45:28.982Z,11.90
2023-07-25T03:47:56.658Z,11.80
2023-07-25T03:50:24.370Z,11.60
2023-07-25T03:52:52.273Z,11.20
2023-07-25T03:55:19.921Z,11.70
2023-07-25T03:57:47.603Z,12.20
2023-07-25T04:00:15.717Z,11.20
2023-07-25T04:02:43.484Z,12.00
2023-07-25T04:05:11.221Z,9.70
2023-07-25T04:07:39.267Z,9.40
2023-07-25T04:10:07.588Z,9.80
2023-07-25T04:12:35.454Z,9.50
2023-07-25T04:15:03.692Z,14.20
2023-07-25T04:17:31.354Z,9.60
2023-07-25T04:19:59.164Z,13.20
2023-07-25T04:22:27.453Z,16.60
2023-07-25T04:24:55.149Z,12.10
2023-07-25T04:27:23.095Z,12.00
2023-07-25T04:29:50.813Z,12.60
2023-07-25T04:32:18.451Z,11.10
2023-07-25T04:34:46.086Z,8.80
2023-07-25T04:37:13.773Z,10.30
2023-07-25T04:39:41.409Z,9.80
2023-07-25T04:42:09.226Z,10.00
2023-07-25T04:44:36.876Z,10.30
2023-07-25T04:47:04.938Z,8.20
2023-07-25T04:49:32.546Z,12.10
2023-07-25T04:52:00.217Z,9.00
2023-07-25T04:54:27.841Z,9.80
2023-07-25T04:56:55.600Z,11.40
2023-07-25T04:59:23.236Z,10.30
2023-07-25T05:01:50.915Z,12.60
2023-07-25T05:04:18.620Z,11.00
2023-07-25T05:06:46.327Z,10.50
2023-07-25T05:09:14.022Z,9.10
2023-07-25T05:11:42.080Z,9.60
2023-07-25T05:14:09.953Z,7.30
2023-07-25T05:16:37.678Z,11.20
2023-07-25T05:19:05.518Z,10.00
2023-07-25T05:21:33.557Z,7.50
2023-07-25T05:24:02.480Z,10.80
2023-07-25T05:26:30.122Z,10.10
2023-07-25T05:28:57.849Z,10.90
2023-07-25T05:31:25.515Z,10.90
2023-07-25T05:33:53.228Z,11.40
2023-07-25T05:36:20.967Z,11.30
2023-07-25T05:38:48.603Z,12.00
2023-07-25T05:41:16.310Z,10.00
2023-07-25T05:43:43.952Z,10.40
2023-07-25T05:46:11.644Z,9.00
2023-07-25T05:48:39.424Z,9.10
2023-07-25T05:51:07.414Z,8.90
2023-07-25T05:53:35.200Z,8.30
2023-07-25T05:56:03.372Z,9.10
2023-07-25T05:58:31.526Z,9.20
2023-07-25T06:00:59.329Z,9.60
2023-07-25T06:03:27.530Z,9.30
2023-07-25T06:05:55.395Z,6.90
2023-07-25T06:08:23.196Z,10.30
2023-07-25T06:10:51.186Z,8.50
2023-07-25T06:13:19.004Z,10.10
2023-07-25T06:15:48.193Z,8.90
2023-07-25T06:18:16.113Z,8.00
2023-07-25T06:20:43.861Z,9.80
2023-07-25T06:23:11.541Z,14.20
2023-07-25T06:25:39.336Z,11.40
2023-07-25T06:28:07.359Z,8.40
2023-07-25T06:30:35.030Z,8.20
2023-07-25T06:33:02.757Z,8.50
2023-07-25T06:35:30.524Z,8.30
2023-07-25T06:37:58.191Z,7.10
2023-07-25T06:40:25.899Z,7.20
2023-07-25T06:42:53.576Z,9.20
2023-07-25T06:45:21.225Z,10.10
2023-07-25T06:47:49.092Z,7.30
2023-07-25T06:50:17.244Z,11.10
2023-07-25T06:52:44.906Z,10.70
2023-07-25T06:55:12.686Z,5.50
2023-07-25T06:57:40.323Z,7.10
2023-07-25T07:00:09.266Z,8.50
2023-07-25T07:02:37.218Z,7.70
2023-07-25T07:05:19.374Z,6.90
2023-07-25T07:07:54.454Z,7.50
2023-07-25T07:10:22.090Z,8.30
2023-07-25T07:12:49.966Z,7.70
2023-07-25T07:15:17.691Z,8.80
2023-07-25T07:17:45.932Z,7.40
2023-07-25T07:20:13.592Z,8.40
2023-07-25T07:22:41.331Z,8.70
2023-07-25T07:25:09.727Z,7.30
2023-07-25T07:27:37.369Z,8.70
2023-07-25T07:30:05.665Z,7.90
2023-07-25T07:32:33.565Z,8.30
2023-07-25T07:35:01.209Z,8.90
2023-07-25T07:37:28.917Z,7.80
2023-07-25T07:39:56.568Z,11.80
2023-07-25T07:42:24.265Z,7.10
2023-07-25T07:44:52.192Z,10.10
2023-07-25T07:47:19.916Z,8.00
2023-07-25T07:49:47.590Z,7.50
2023-07-25T07:52:20.136Z,11.30
2023-07-25T07:54:57.390Z,10.10
2023-07-25T07:57:25.057Z,7.00
2023-07-25T07:59:53.401Z,7.70
2023-07-25T08:02:21.230Z,9.40
2023-07-25T08:04:49.052Z,8.40
2023-07-25T08:07:16.843Z,8.40
2023-07-25T08:09:44.597Z,7.10
2023-07-25T08:12:12.272Z,8.40
2023-07-25T08:14:39.953Z,8.50
2023-07-25T08:17:07.948Z,8.30
2023-07-25T08:19:35.579Z,8.10
2023-07-25T08:22:03.375Z,7.70
2023-07-25T08:24:31.393Z,7.00
2023-07-25T08:27:00.433Z,7.20
2023-07-25T08:29:28.213Z,6.70
2023-07-25T08:31:55.927Z,9.90
2023-07-25T08:34:24.041Z,7.40
2023-07-25T08:36:51.685Z,8.10
2023-07-25T08:39:19.442Z,7.40
2023-07-25T08:41:48.956Z,7.90
2023-07-25T08:44:16.603Z,7.40
2023-07-25T08:46:45.900Z,6.50
2023-07-25T08:49:15.963Z,7.70
2023-07-25T08:51:44.927Z,8.50
2023-07-25T08:54:31.223Z,8.60
2023-07-25T08:56:59.322Z,7.00
2023-07-25T08:59:27.208Z,6.90
2023-07-25T09:01:55.169Z,8.00
2023-07-25T09:04:24.669Z,6.40
2023-07-25T09:06:52.907Z,6.20
2023-07-25T09:09:20.637Z,8.80
2023-07-25T09:11:48.344Z,8.60
2023-07-25T09:14:16.011Z,10.20
2023-07-25T09:16:43.845Z,6.50
2023-07-25T09:19:12.455Z,6.60
2023-07-25T09:21:51.928Z,9.10
2023-07-25T09:24:19.954Z,6.60
2023-07-25T09:26:51.666Z,7.70
2023-07-25T09:29:19.639Z,7.50
2023-07-25T09:31:47.717Z,8.60
2023-07-25T09:34:18.993Z,6.80
2023-07-25T09:36:48.719Z,6.00
2023-07-25T09:39:16.997Z,7.50
2023-07-25T09:41:46.680Z,7.60
2023-07-25T09:44:14.606Z,6.00
2023-07-25T09:46:51.707Z,8.90
2023-07-25T09:49:23.089Z,8.40
2023-07-25T09:52:01.000Z,5.60
2023-07-25T09:54:29.021Z,7.70
2023-07-25T09:56:56.678Z,6.50
2023-07-25T09:59:24.418Z,8.70
2023-07-25T10:01:52.282Z,7.30
2023-07-25T10:04:20.884Z,6.20
2023-07-25T10:06:48.817Z,6.10
2023-07-25T10:09:16.505Z,7.00
2023-07-25T10:11:44.169Z,6.40
2023-07-25T10:14:11.998Z,5.90
2023-07-25T10:16:39.699Z,5.30
2023-07-25T10:19:07.586Z,6.00
2023-07-25T10:21:51.694Z,5.60
2023-07-25T10:24:20.827Z,6.00
2023-07-25T10:27:01.227Z,6.50
2023-07-25T10:29:40.163Z,7.80
2023-07-25T10:32:11.655Z,5.80
2023-07-25T10:34:53.831Z,7.00
2023-07-25T10:37:29.615Z,5.90
2023-07-25T10:40:04.879Z,6.80
2023-07-25T10:45:28.167Z,6.20
2023-07-25T10:48:01.179Z,8.00
2023-07-25T10:50:51.150Z,5.20
2023-07-25T10:53:22.946Z,9.90
2023-07-25T10:58:39.595Z,5.70
2023-07-25T11:01:07.920Z,6.40
2023-07-25T11:03:37.146Z,6.10
2023-07-25T11:06:07.922Z,6.40
2023-07-25T11:08:35.980Z,5.80
2023-07-25T11:11:04.471Z,7.90
2023-07-25T11:13:36.608Z,5.30
2023-07-25T11:16:05.186Z,5.80
2023-07-25T11:18:38.601Z,6.00
2023-07-25T11:21:08.581Z,5.00
2023-07-25T11:23:36.299Z,5.20
2023-07-25T11:26:05.195Z,7.30
2023-07-25T11:28:32.958Z,5.50
2023-07-25T11:31:00.856Z,5.50
2023-07-25T11:33:29.097Z,5.50
2023-07-25T11:35:57.201Z,6.20
2023-07-25T11:38:25.016Z,5.60
2023-07-25T11:40:57.666Z,5.40
2023-07-25T11:43:29.348Z,7.30
2023-07-25T11:45:57.380Z,5.50
2023-07-25T11:48:25.212Z,5.60
2023-07-25T11:50:52.926Z,6.00
2023-07-25T11:53:21.623Z,6.40
2023-07-25T11:55:52.110Z,5.80
2023-07-25T11:58:20.439Z,7.10
2023-07-25T12:00:55.565Z,5.70
2023-07-25T12:03:24.827Z,7.60
2023-07-25T12:05:58.004Z,8.70
2023-07-25T12:08:36.769Z,5.90
2023-07-25T12:11:05.602Z,6.70
2023-07-25T12:13:33.546Z,5.00
2023-07-25T12:16:03.122Z,9.60
2023-07-25T12:18:35.971Z,8.80
2023-07-25T12:21:04.931Z,12.40
2023-07-25T12:23:40.007Z,11.10
2023-07-25T12:26:12.498Z,9.80
2023-07-25T12:28:42.971Z,10.70
2023-07-25T12:31:11.305Z,8.30
2023-07-25T12:33:39.678Z,7.80
2023-07-25T12:36:07.631Z,6.00
2023-07-25T12:38:35.476Z,6.80
2023-07-25T12:41:04.057Z,7.20
2023-07-25T12:43:31.847Z,5.80
2023-07-25T12:45:59.792Z,7.30
2023-07-25T12:48:27.492Z,8.40
2023-07-25T12:50:55.342Z,5.80
2023-07-25T12:53:23.054Z,10.80
2023-07-25T12:55:50.675Z,8.10
2023-07-25T12:58:18.534Z,6.80
2023-07-25T13:00:46.239Z,4.90
2023-07-25T13:03:14.042Z,6.20
2023-07-25T13:05:42.996Z,6.70
2023-07-25T13:08:10.721Z,6.90
2023-07-25T13:10:38.384Z,7.60
2023-07-25T13:13:06.092Z,7.00
2023-07-25T13:15:35.113Z,6.70
2023-07-25T13:18:02.841Z,6.10
2023-07-25T13:20:30.685Z,7.10
2023-07-25T13:22:58.371Z,7.60
2023-07-25T13:25:26.168Z,9.50
2023-07-25T13:27:53.999Z,6.80
2023-07-25T13:30:21.706Z,7.00
2023-07-25T13:32:49.473Z,6.90
2023-07-25T13:35:17.534Z,6.40
2023-07-25T13:37:45.323Z,6.50
2023-07-25T13:40:13.273Z,5.60
2023-07-25T13:42:41.265Z,7.70
2023-07-25T13:45:09.714Z,7.10
2023-07-25T13:47:37.588Z,7.90
2023-07-25T13:50:05.678Z,5.60
2023-07-25T13:52:33.490Z,5.80
2023-07-25T13:55:01.193Z,5.90
2023-07-25T13:57:32.765Z,8.30
2023-07-25T14:00:01.939Z,7.80
2023-07-25T14:02:29.661Z,8.20
2023-07-25T14:04:57.380Z,6.30
2023-07-25T14:07:25.335Z,7.30
2023-07-25T14:09:52.993Z,9.40
2023-07-25T14:12:20.782Z,6.00
2023-07-25T14:14:48.489Z,8.10
2023-07-25T14:17:16.179Z,4.00
2023-07-25T14:19:44.107Z,5.50
2023-07-25T14:22:11.812Z,5.20
2023-07-25T14:24:39.552Z,5.70
2023-07-25T14:27:07.448Z,3.70
2023-07-25T14:29:35.243Z,5.30
2023-07-25T14:32:02.982Z,3.60
2023-07-25T14:34:30.642Z,4.60
2023-07-25T14:36:58.466Z,3.80
2023-07-25T14:39:26.122Z,4.50
2023-07-25T14:41:53.857Z,3.90
2023-07-25T14:44:21.658Z,4.20
2023-07-25T14:46:49.384Z,4.20
2023-07-25T14:49:17.219Z,5.80
2023-07-25T14:51:45.011Z,3.70
2023-07-25T14:54:12.687Z,3.80
2023-07-25T14:56:40.493Z,4.60
2023-07-25T14:59:08.300Z,4.60
2023-07-25T15:01:36.124Z,5.90
2023-07-25T15:04:04.033Z,6.30
2023-07-25T15:06:31.990Z,4.30
2023-07-25T15:08:59.890Z,5.20
2023-07-25T15:11:27.770Z,5.30
2023-07-25T15:13:55.429Z,5.30
2023-07-25T15:16:23.216Z,4.90
2023-07-25T15:18:50.923Z,3.80
2023-07-25T15:21:18.637Z,4.00
2023-07-25T15:23:46.293Z,4.50
2023-07-25T15:26:14.051Z,4.10
2023-07-25T15:28:41.706Z,4.30
2023-07-25T15:31:09.368Z,4.40
2023-07-25T15:33:37.284Z,4.30
2023-07-25T15:36:05.230Z,4.00
2023-07-25T15:38:33.942Z,4.70
2023-07-25T15:41:01.624Z,4.80
2023-07-25T15:43:29.245Z,6.20
2023-07-25T15:45:56.910Z,5.90
2023-07-25T15:48:24.537Z,5.60
2023-07-25T15:50:52.179Z,4.80
2023-07-25T15:53:19.836Z,5.20
2023-07-25T15:55:48.031Z,4.20
2023-07-25T15:58:15.668Z,5.10
2023-07-25T16:00:43.481Z,3.60
2023-07-25T16:03:11.452Z,3.90
2023-07-25T16:05:39.692Z,4.40
2023-07-25T16:08:07.428Z,4.80
2023-07-25T16:10:35.072Z,4.40
2023-07-25T16:13:03.358Z,4.10
2023-07-25T16:15:33.513Z,4.40
2023-07-25T16:18:01.587Z,3.40
2023-07-25T16:20:29.519Z,6.10
2023-07-25T16:22:57.210Z,13.10
2023-07-25T16:25:25.362Z,6.10
2023-07-25T16:27:53.264Z,5.30
2023-07-25T16:30:20.971Z,4.40
2023-07-25T16:32:48.671Z,3.40
2023-07-25T16:35:16.503Z,4.50
2023-07-25T16:37:44.272Z,4.80
2023-07-25T16:40:12.065Z,5.30
2023-07-25T16:42:41.401Z,6.50
2023-07-25T16:45:09.439Z,6.70
2023-07-25T16:47:37.172Z,4.50
2023-07-25T16:50:05.370Z,6.20
2023-07-25T16:52:35.699Z,5.30
2023-07-25T16:55:03.978Z,5.70
2023-07-25T16:57:31.936Z,5.40
2023-07-25T16:59:59.605Z,4.30
2023-07-25T17:02:27.469Z,4.90
2023-07-25T17:04:56.151Z,6.80
2023-07-25T17:07:23.844Z,4.00
2023-07-25T17:09:51.500Z,4.80
2023-07-25T17:12:19.260Z,6.20
2023-07-25T17:14:46.924Z,5.90
2023-07-25T17:17:14.593Z,4.30
2023-07-25T17:19:42.234Z,5.20
2023-07-25T17:22:09.879Z,3.80
2023-07-25T17:24:39.264Z,4.20
2023-07-25T17:27:07.200Z,4.50
2023-07-25T17:29:34.870Z,4.90
2023-07-25T17:32:03.195Z,5.50
2023-07-25T17:34:31.078Z,4.40
2023-07-25T17:36:58.984Z,3.40
2023-07-25T17:39:26.707Z,4.70
2023-07-25T17:41:54.592Z,4.70
2023-07-25T17:44:22.295Z,4.90
2023-07-25T17:46:50.128Z,5.30
2023-07-25T17:49:20.527Z,5.80
2023-07-25T17:51:48.954Z,4.20
2023-07-25T17:54:16.620Z,4.80
2023-07-25T17:56:44.407Z,4.10
2023-07-25T17:59:12.264Z,7.00
2023-07-25T18:01:39.932Z,4.60
2023-07-25T18:04:07.575Z,5.50
2023-07-25T18:06:35.325Z,5.80
2023-07-25T18:09:03.071Z,6.80
2023-07-25T18:11:31.106Z,6.40
2023-07-25T18:13:59.146Z,5.80
2023-07-25T18:16:26.982Z,8.30
2023-07-25T18:18:54.643Z,9.50
2023-07-25T18:21:22.321Z,7.00
2023-07-25T18:23:50.175Z,7.90
2023-07-25T18:26:17.959Z,7.30
2023-07-25T18:28:45.596Z,5.70
2023-07-25T18:31:13.291Z,7.20
2023-07-25T18:33:41.177Z,11.50
2023-07-25T18:36:08.992Z,17.90
2023-07-25T18:38:36.717Z,10.00
2023-07-25T18:41:04.462Z,6.50
2023-07-25T18:43:32.225Z,5.70
2023-07-25T18:46:00.072Z,6.60
2023-07-25T18:48:27.723Z,7.40
2023-07-25T18:50:55.483Z,6.60
2023-07-25T18:53:23.150Z,6.40
2023-07-25T18:55:51.254Z,7.70
2023-07-25T18:58:18.942Z,7.10
2023-07-25T19:00:49.008Z,7.40
2023-07-25T19:03:16.953Z,8.50
2023-07-25T19:05:44.694Z,7.80
2023-07-25T19:08:12.380Z,7.20
2023-07-25T19:10:40.324Z,8.40
2023-07-25T19:13:08.001Z,10.10
2023-07-25T19:15:35.620Z,11.40
2023-07-25T19:18:03.471Z,7.90
2023-07-25T19:20:31.234Z,8.20
2023-07-25T19:23:00.497Z,10.80
2023-07-25T19:25:32.779Z,13.50
2023-07-25T19:28:01.166Z,14.90
2023-07-25T19:30:29.082Z,13.90
2023-07-25T19:32:57.107Z,10.00
2023-07-25T19:35:24.842Z,10.10
2023-07-25T19:37:52.636Z,10.20
2023-07-25T19:40:20.362Z,7.50
2023-07-25T19:42:48.051Z,7.50
2023-07-25T19:45:15.835Z,6.00
2023-07-25T19:47:43.584Z,7.20
2023-07-25T19:50:11.809Z,5.80
2023-07-25T19:52:39.543Z,7.90
2023-07-25T19:55:07.586Z,6.20
2023-07-25T19:57:38.563Z,8.10
2023-07-25T20:00:07.559Z,6.60
2023-07-25T20:02:35.495Z,7.60
2023-07-25T20:05:03.339Z,9.60
2023-07-25T20:07:30.971Z,8.30
2023-07-25T20:09:58.636Z,10.70
2023-07-25T20:12:26.674Z,10.20
2023-07-25T20:14:54.344Z,9.00
2023-07-25T20:17:22.079Z,8.70
2023-07-25T20:19:49.730Z,11.10
2023-07-25T20:22:17.394Z,12.20
2023-07-25T20:24:45.143Z,13.80
2023-07-25T20:27:12.928Z,15.30
2023-07-25T20:29:40.569Z,13.30
2023-07-25T20:32:09.073Z,11.80
2023-07-25T20:34:36.812Z,12.60
2023-07-25T20:37:04.759Z,18.90
2023-07-25T20:39:32.483Z,13.80
2023-07-25T20:42:00.157Z,12.80
2023-07-25T20:44:27.825Z,15.70
2023-07-25T20:46:55.646Z,11.80
2023-07-25T20:49:23.366Z,10.50
2023-07-25T20:51:51.280Z,11.30
2023-07-25T20:54:19.228Z,10.80
2023-07-25T20:56:47.155Z,11.70
2023-07-25T20:59:15.140Z,13.20
2023-07-25T21:01:42.989Z,9.70
2023-07-25T21:04:10.696Z,11.30
2023-07-25T21:06:38.342Z,14.10
2023-07-25T21:09:06.282Z,16.30
2023-07-25T21:11:33.943Z,12.00
2023-07-25T21:14:01.609Z,14.80
2023-07-25T21:16:31.206Z,11.10
2023-07-25T21:18:59.180Z,13.30
2023-07-25T21:21:26.834Z,11.60
2023-07-25T21:23:54.511Z,14.20
2023-07-25T21:26:22.160Z,10.70
2023-07-25T21:28:49.832Z,10.80
2023-07-25T21:31:17.483Z,12.70
2023-07-25T21:33:45.158Z,14.30
2023-07-25T21:36:14.364Z,14.40
2023-07-25T21:38:42.706Z,14.40
2023-07-25T21:41:15.582Z,10.90
2023-07-25T21:43:43.584Z,17.60
2023-07-25T21:46:11.359Z,16.00
2023-07-25T21:48:39.248Z,12.40
2023-07-25T21:51:07.634Z,13.30
2023-07-25T21:53:35.344Z,12.60
2023-07-25T21:56:03.068Z,13.70
2023-07-25T21:58:30.892Z,10.90
2023-07-25T22:00:59.028Z,13.30
2023-07-25T22:03:29.247Z,15.30
2023-07-25T22:05:58.022Z,19.60
2023-07-25T22:08:25.767Z,15.00
2023-07-25T22:10:53.724Z,10.80
2023-07-25T22:13:21.630Z,12.10
2023-07-25T22:15:49.461Z,12.80
2023-07-25T22:18:17.179Z,13.40
2023-07-25T22:20:51.757Z,16.20
2023-07-25T22:23:21.464Z,15.30
2023-07-25T22:25:49.472Z,20.20
2023-07-25T22:28:17.140Z,12.20
2023-07-25T22:30:45.068Z,16.40
2023-07-25T22:33:12.784Z,16.90
2023-07-25T22:35:40.424Z,14.10
2023-07-25T22:38:08.063Z,14.70
2023-07-25T22:40:35.800Z,11.80
2023-07-25T22:43:03.519Z,12.90
2023-07-25T22:45:31.253Z,12.90
2023-07-25T22:47:59.010Z,13.60
2023-07-25T22:50:26.797Z,12.70
2023-07-25T22:52:54.766Z,13.10
2023-07-25T22:55:22.643Z,11.20
2023-07-25T22:57:50.276Z,12.30
2023-07-25T23:00:18.026Z,12.30
2023-07-25T23:02:45.864Z,14.70
2023-07-25T23:05:13.674Z,13.20
2023-07-25T23:07:41.370Z,10.10
2023-07-25T23:10:09.672Z,11.00
2023-07-25T23:12:37.314Z,13.00
2023-07-25T23:15:05.811Z,11.50
2023-07-25T23:17:33.538Z,11.00
2023-07-25T23:20:01.208Z,11.20
2023-07-25T23:22:28.878Z,9.50
2023-07-25T23:24:57.445Z,13.20
2023-07-25T23:27:25.231Z,10.60
2023-07-25T23:29:53.164Z,13.60
2023-07-25T23:32:20.956Z,9.90
2023-07-25T23:34:50.556Z,12.60
2023-07-25T23:37:18.288Z,11.00
2023-07-25T23:39:46.314Z,13.90
2023-07-25T23:42:15.049Z,16.50
2023-07-25T23:44:42.731Z,11.30
2023-07-25T23:47:11.836Z,12.40
2023-07-25T23:49:39.737Z,12.40
2023-07-25T23:52:08.011Z,10.20
2023-07-25T23:54:35.739Z,12.80
2023-07-25T23:57:04.566Z,14.20
2023-07-25T23:59:32.498Z,12.10
